createdAt,value
2022-10-29T00:02:29.696Z,88.73
2022-10-29T00:05:02.063Z,88.63
2022-10-29T00:07:30.949Z,88.53
2022-10-29T00:09:59.202Z,88.61
2022-10-29T00:12:57.034Z,88.71
2022-10-29T00:15:26.095Z,88.27
2022-10-29T00:17:54.671Z,88.26
2022-10-29T00:20:24.099Z,88.49
2022-10-29T00:23:03.293Z,88.16
2022-10-29T00:26:06.430Z,87.91
2022-10-29T00:41:15.388Z,87.59
2022-10-29T00:44:35.714Z,87.06
2022-10-29T00:47:18.202Z,87.28
2022-10-29T00:49:52.305Z,87.51
2022-10-29T00:52:28.993Z,87.09
2022-10-29T00:54:59.851Z,86.70
2022-10-29T00:57:43.948Z,86.65
2022-10-29T01:00:21.907Z,85.85
2022-10-29T01:02:51.176Z,85.87
2022-10-29T01:05:33.005Z,85.21
2022-10-29T01:08:06.650Z,85.54
2022-10-29T01:10:55.534Z,85.62
2022-10-29T01:13:45.596Z,85.47
2022-10-29T01:16:29.316Z,85.35
2022-10-29T01:19:15.961Z,85.10
2022-10-29T01:21:52.932Z,84.99
2022-10-29T01:25:01.158Z,84.95
2022-10-29T01:27:49.045Z,84.61
2022-10-29T01:30:48.065Z,84.52
2022-10-29T01:33:27.891Z,84.14
2022-10-29T01:36:13.606Z,84.51
2022-10-29T01:39:02.508Z,84.43
2022-10-29T01:41:41.214Z,84.00
2022-10-29T01:44:22.718Z,83.72
2022-10-29T01:46:57.393Z,83.48
2022-10-29T01:49:48.157Z,83.20
2022-10-29T01:52:19.730Z,83.24
2022-10-29T01:54:57.177Z,83.21
2022-10-29T01:57:42.125Z,82.54
2022-10-29T02:00:16.125Z,82.71
2022-10-29T02:03:05.406Z,82.12
2022-10-29T02:05:41.502Z,82.20
2022-10-29T02:08:22.673Z,82.39
2022-10-29T02:10:58.059Z,82.46
2022-10-29T02:13:34.828Z,82.54
2022-10-29T02:16:12.284Z,81.87
2022-10-29T02:18:53.303Z,81.53
2022-10-29T02:21:25.158Z,81.52
2022-10-29T02:24:02.167Z,81.32
2022-10-29T02:26:33.573Z,81.33
2022-10-29T02:29:02.444Z,81.13
2022-10-29T02:31:30.968Z,80.70
2022-10-29T02:33:59.593Z,80.73
2022-10-29T02:36:29.393Z,80.28
2022-10-29T02:38:58.360Z,80.12
2022-10-29T02:41:26.941Z,80.21
2022-10-29T02:43:55.260Z,79.80
2022-10-29T02:46:25.359Z,79.60
2022-10-29T02:48:54.385Z,79.21
2022-10-29T02:51:22.701Z,78.96
2022-10-29T02:53:52.498Z,78.43
2022-10-29T02:56:20.910Z,78.39
2022-10-29T02:58:50.348Z,78.03
2022-10-29T03:01:19.315Z,77.69
2022-10-29T03:03:56.880Z,77.45
2022-10-29T03:06:25.493Z,77.29
2022-10-29T03:08:55.414Z,77.12
2022-10-29T03:11:24.660Z,77.14
2022-10-29T03:13:53.590Z,77.34
2022-10-29T03:16:22.022Z,77.28
2022-10-29T03:18:50.733Z,77.14
2022-10-29T03:21:19.042Z,77.29
2022-10-29T03:23:49.197Z,77.24
2022-10-29T03:26:19.365Z,77.29
2022-10-29T03:28:47.741Z,77.55
2022-10-29T03:31:21.558Z,77.52
2022-10-29T03:33:50.123Z,78.14
2022-10-29T03:36:20.541Z,78.15
2022-10-29T03:38:49.040Z,77.59
2022-10-29T03:41:19.227Z,77.93
2022-10-29T03:43:57.890Z,77.83
2022-10-29T03:46:29.404Z,77.48
2022-10-29T03:49:02.303Z,77.33
2022-10-29T03:51:31.394Z,77.01
2022-10-29T03:54:02.248Z,77.26
2022-10-29T03:56:33.047Z,78.00
2022-10-29T03:59:07.653Z,78.57
2022-10-29T04:01:49.839Z,79.14
2022-10-29T04:04:48.001Z,79.21
2022-10-29T04:07:35.699Z,79.18
2022-10-29T04:10:08.830Z,78.73
2022-10-29T04:12:40.509Z,78.68
2022-10-29T04:15:26.098Z,79.02
2022-10-29T04:17:59.317Z,78.52
2022-10-29T04:21:31.277Z,78.33
2022-10-29T04:29:59.608Z,77.89
2022-10-29T04:32:34.966Z,77.51
2022-10-29T04:35:09.058Z,77.18
2022-10-29T04:37:44.001Z,77.23
2022-10-29T04:40:13.450Z,77.02
2022-10-29T04:42:45.212Z,76.68
2022-10-29T04:45:25.838Z,76.71
2022-10-29T04:48:00.971Z,76.57
2022-10-29T04:50:33.382Z,76.41
2022-10-29T04:53:02.504Z,76.50
2022-10-29T04:55:53.413Z,76.74
2022-10-29T04:58:24.581Z,76.96
2022-10-29T05:01:02.899Z,76.91
2022-10-29T05:03:33.686Z,77.47
2022-10-29T05:06:05.653Z,77.60
2022-10-29T05:08:34.797Z,78.12
2022-10-29T05:11:11.797Z,78.45
2022-10-29T05:13:47.917Z,78.08
2022-10-29T05:16:19.948Z,78.15
2022-10-29T05:18:48.507Z,78.02
2022-10-29T05:21:16.803Z,78.46
2022-10-29T05:23:45.090Z,78.15
2022-10-29T05:26:14.083Z,78.26
2022-10-29T05:28:43.047Z,78.18
2022-10-29T05:31:11.766Z,78.03
2022-10-29T05:33:41.585Z,78.18
2022-10-29T05:36:11.840Z,78.49
2022-10-29T05:38:48.685Z,78.69
2022-10-29T05:41:24.169Z,78.59
2022-10-29T05:44:01.076Z,79.13
2022-10-29T05:46:56.136Z,79.28
2022-10-29T05:50:12.602Z,78.97
2022-10-29T05:53:17.054Z,79.31
2022-10-29T05:56:12.410Z,79.63
2022-10-29T06:02:06.173Z,80.19
2022-10-29T06:05:10.107Z,80.51
2022-10-29T06:11:20.184Z,80.54
2022-10-29T06:13:56.432Z,80.48
2022-10-29T06:16:28.940Z,80.48
2022-10-29T06:19:02.923Z,80.28
2022-10-29T06:21:31.712Z,79.58
2022-10-29T06:24:19.387Z,79.30
2022-10-29T06:27:00.565Z,79.16
2022-10-29T06:29:34.068Z,78.85
2022-10-29T06:32:15.165Z,78.57
2022-10-29T06:34:48.819Z,78.39
2022-10-29T06:37:41.045Z,78.04
2022-10-29T06:40:13.783Z,78.03
2022-10-29T06:43:13.276Z,77.80
2022-10-29T06:45:44.665Z,77.66
2022-10-29T06:48:22.412Z,77.37
2022-10-29T06:51:06.986Z,77.04
2022-10-29T06:53:46.782Z,77.04
2022-10-29T06:56:24.036Z,76.58
2022-10-29T06:59:05.935Z,76.35
2022-10-29T07:01:56.536Z,75.96
2022-10-29T07:04:28.011Z,75.79
2022-10-29T07:08:23.073Z,76.01
2022-10-29T07:11:28.458Z,75.87
2022-10-29T07:14:10.079Z,75.79
2022-10-29T07:22:06.870Z,75.76
2022-10-29T07:25:23.364Z,76.09
2022-10-29T07:32:37.191Z,75.83
2022-10-29T07:36:01.944Z,75.87
2022-10-29T07:40:04.422Z,76.09
2022-10-29T07:52:39.728Z,75.61
2022-10-29T07:55:36.657Z,75.79
2022-10-29T07:58:46.393Z,75.20
2022-10-29T08:01:23.468Z,75.29
2022-10-29T08:04:18.822Z,75.35
2022-10-29T08:07:06.699Z,74.96
2022-10-29T08:10:07.453Z,74.86
2022-10-29T08:13:21.249Z,75.01
2022-10-29T08:16:33.938Z,75.00
2022-10-29T08:19:10.447Z,74.97
2022-10-29T08:29:40.516Z,75.07
2022-10-29T08:37:46.940Z,74.67
2022-10-29T09:04:09.643Z,73.78
2022-10-29T09:10:30.304Z,73.54
2022-10-29T09:16:55.041Z,73.21
2022-10-29T09:19:44.436Z,72.83
2022-10-29T09:22:27.457Z,72.53
2022-10-29T09:25:13.197Z,72.26
2022-10-29T09:28:13.446Z,72.38
2022-10-29T09:30:52.300Z,72.70
2022-10-29T09:33:27.879Z,72.93
2022-10-29T09:36:16.424Z,72.95
2022-10-29T09:39:03.621Z,73.27
2022-10-29T09:41:49.440Z,73.93
2022-10-29T09:44:24.406Z,73.98
2022-10-29T09:47:10.763Z,73.84
2022-10-29T09:50:05.491Z,73.92
2022-10-29T09:52:45.940Z,74.43
2022-10-29T09:55:25.400Z,74.28
2022-10-29T09:58:09.195Z,74.94
2022-10-29T10:00:37.561Z,74.77
2022-10-29T10:03:14.650Z,74.74
2022-10-29T10:06:02.708Z,74.68
2022-10-29T10:08:47.976Z,75.31
2022-10-29T10:11:21.240Z,75.17
2022-10-29T10:14:00.276Z,74.91
2022-10-29T10:16:31.577Z,75.15
2022-10-29T10:19:01.360Z,75.63
2022-10-29T10:21:33.447Z,75.87
2022-10-29T10:24:02.074Z,76.34
2022-10-29T10:26:33.974Z,76.41
2022-10-29T10:29:13.116Z,76.27
2022-10-29T10:31:41.973Z,76.03
2022-10-29T10:34:18.815Z,76.19
2022-10-29T10:36:51.368Z,76.83
2022-10-29T10:39:25.854Z,76.47
2022-10-29T10:41:55.426Z,75.92
2022-10-29T10:44:28.941Z,76.06
2022-10-29T10:47:01.700Z,76.28
2022-10-29T10:49:37.162Z,76.38
2022-10-29T10:52:08.091Z,76.43
2022-10-29T10:54:39.933Z,76.13
2022-10-29T10:57:22.503Z,76.45
2022-10-29T11:00:00.608Z,76.33
2022-10-29T11:02:37.724Z,76.34
2022-10-29T11:05:17.820Z,76.85
2022-10-29T11:07:51.176Z,76.22
2022-10-29T11:10:21.883Z,75.67
2022-10-29T11:12:54.460Z,76.03
2022-10-29T11:15:31.899Z,75.54
2022-10-29T11:18:11.766Z,75.29
2022-10-29T11:20:46.822Z,75.46
2022-10-29T11:23:30.957Z,75.15
2022-10-29T11:26:08.073Z,75.11
2022-10-29T11:28:44.641Z,75.03
2022-10-29T11:31:21.740Z,75.24
2022-10-29T11:33:58.912Z,75.49
2022-10-29T11:36:35.780Z,75.43
2022-10-29T11:39:10.447Z,75.73
2022-10-29T11:41:46.238Z,75.68
2022-10-29T11:44:18.026Z,75.74
2022-10-29T11:47:00.691Z,75.70
2022-10-29T11:49:42.855Z,75.58
2022-10-29T11:52:15.546Z,75.60
2022-10-29T11:54:53.789Z,75.93
2022-10-29T11:57:27.931Z,76.30
2022-10-29T12:00:06.266Z,75.89
2022-10-29T12:03:08.276Z,75.70
2022-10-29T12:05:41.439Z,75.73
2022-10-29T12:08:25.732Z,75.79
2022-10-29T12:10:59.132Z,75.88
2022-10-29T12:13:43.963Z,76.18
2022-10-29T12:16:24.322Z,76.05
2022-10-29T12:18:57.537Z,75.77
2022-10-29T12:21:32.286Z,75.77
2022-10-29T12:24:14.352Z,76.10
2022-10-29T12:26:46.148Z,76.68
2022-10-29T12:29:22.993Z,77.00
2022-10-29T12:31:59.789Z,77.40
2022-10-29T12:34:33.293Z,77.76
2022-10-29T12:37:11.078Z,77.91
2022-10-29T12:39:46.796Z,78.24
2022-10-29T12:42:21.849Z,78.59
2022-10-29T12:45:03.136Z,78.63
2022-10-29T12:47:37.385Z,78.86
2022-10-29T12:50:24.257Z,78.62
2022-10-29T12:53:04.469Z,78.51
2022-10-29T12:55:37.115Z,78.80
2022-10-29T12:58:38.392Z,78.85
2022-10-29T13:01:08.421Z,78.79
2022-10-29T13:04:02.383Z,78.98
2022-10-29T13:06:49.554Z,79.35
2022-10-29T13:09:20.753Z,79.26
2022-10-29T13:11:52.736Z,79.96
2022-10-29T13:14:26.932Z,79.71
2022-10-29T13:16:57.033Z,79.44
2022-10-29T13:19:52.068Z,79.54
2022-10-29T13:22:51.632Z,79.52
2022-10-29T13:25:44.473Z,79.55
2022-10-29T13:28:49.936Z,79.66
2022-10-29T13:31:54.810Z,79.80
2022-10-29T13:34:54.353Z,79.83
2022-10-29T13:37:50.719Z,79.82
2022-10-29T13:41:03.877Z,79.97
2022-10-29T13:43:41.836Z,79.87
2022-10-29T13:46:30.917Z,79.60
2022-10-29T13:49:02.224Z,79.61
2022-10-29T13:51:41.547Z,79.78
2022-10-29T13:54:16.972Z,79.64
2022-10-29T13:56:50.647Z,79.95
2022-10-29T13:59:26.704Z,79.82
2022-10-29T14:02:07.145Z,79.76
2022-10-29T14:04:40.569Z,79.79
2022-10-29T14:07:21.087Z,80.04
2022-10-29T14:09:54.961Z,80.04
2022-10-29T14:12:27.462Z,80.15
2022-10-29T14:15:01.351Z,80.50
2022-10-29T14:17:31.010Z,80.14
2022-10-29T14:19:59.096Z,80.31
2022-10-29T14:22:33.571Z,80.06
2022-10-29T14:25:03.091Z,80.24
2022-10-29T14:27:31.481Z,80.06
2022-10-29T14:30:19.910Z,80.35
2022-10-29T14:32:49.642Z,80.62
2022-10-29T14:35:18.493Z,80.50
2022-10-29T14:37:50.277Z,80.45
2022-10-29T14:40:22.736Z,80.37
2022-10-29T14:42:55.321Z,80.65
2022-10-29T14:45:27.671Z,80.55
2022-10-29T14:47:59.322Z,80.65
2022-10-29T14:50:29.339Z,81.17
2022-10-29T14:53:00.805Z,81.05
2022-10-29T14:55:34.501Z,81.20
2022-10-29T14:58:06.678Z,81.67
2022-10-29T15:00:37.326Z,81.58
2022-10-29T15:03:08.164Z,81.47
2022-10-29T15:05:38.972Z,81.35
2022-10-29T15:08:14.929Z,81.64
2022-10-29T15:10:48.086Z,81.22
2022-10-29T15:13:24.307Z,81.29
2022-10-29T15:15:55.655Z,81.25
2022-10-29T15:18:26.799Z,81.17
2022-10-29T15:20:56.487Z,81.30
2022-10-29T15:23:28.057Z,81.14
2022-10-29T15:26:02.978Z,81.23
2022-10-29T15:28:32.811Z,81.16
2022-10-29T15:31:03.575Z,81.34
2022-10-29T15:33:33.673Z,81.40
2022-10-29T15:36:04.180Z,81.14
2022-10-29T15:39:07.995Z,81.25
2022-10-29T15:41:40.231Z,81.52
2022-10-29T15:44:34.174Z,81.75
2022-10-29T15:47:04.104Z,82.18
2022-10-29T15:49:33.881Z,81.98
2022-10-29T15:52:02.971Z,82.17
2022-10-29T15:54:31.425Z,82.03
2022-10-29T15:57:00.146Z,82.12
2022-10-29T15:59:28.766Z,82.07
2022-10-29T16:01:56.933Z,82.15
2022-10-29T16:04:25.504Z,82.12
2022-10-29T16:06:55.140Z,82.11
2022-10-29T16:09:23.478Z,82.65
2022-10-29T16:11:52.108Z,82.51
2022-10-29T16:14:20.412Z,82.24
2022-10-29T16:16:48.806Z,82.53
2022-10-29T16:19:17.183Z,82.58
2022-10-29T16:21:45.306Z,83.00
2022-10-29T16:24:17.153Z,82.67
2022-10-29T16:26:45.342Z,82.41
2022-10-29T16:29:16.091Z,82.76
2022-10-29T16:31:44.965Z,82.83
2022-10-29T16:34:17.194Z,82.56
2022-10-29T16:36:47.899Z,82.97
2022-10-29T16:39:17.635Z,82.90
2022-10-29T16:41:45.782Z,83.04
2022-10-29T16:44:13.832Z,83.07
2022-10-29T16:46:42.012Z,83.17
2022-10-29T16:49:10.336Z,83.08
2022-10-29T16:51:38.396Z,82.83
2022-10-29T16:54:06.586Z,83.15
2022-10-29T16:56:36.368Z,83.27
2022-10-29T16:59:04.504Z,83.38
2022-10-29T17:01:32.647Z,83.01
2022-10-29T17:04:01.155Z,83.20
2022-10-29T17:06:29.253Z,83.38
2022-10-29T17:08:57.647Z,83.57
2022-10-29T17:11:25.850Z,83.32
2022-10-29T17:13:55.416Z,83.24
2022-10-29T17:16:23.786Z,83.63
2022-10-29T17:18:52.058Z,83.34
2022-10-29T17:21:20.152Z,83.30
2022-10-29T17:23:48.750Z,83.42
2022-10-29T17:26:17.174Z,83.38
2022-10-29T17:28:45.361Z,83.48
2022-10-29T17:31:15.524Z,83.71
2022-10-29T17:33:43.803Z,83.95
2022-10-29T17:36:13.326Z,83.58
2022-10-29T17:38:41.503Z,83.66
2022-10-29T17:41:09.628Z,83.81
2022-10-29T17:43:42.253Z,83.62
2022-10-29T17:46:10.483Z,83.78
2022-10-29T17:48:40.081Z,84.08
2022-10-29T17:51:08.763Z,84.15
2022-10-29T17:53:39.558Z,83.65
2022-10-29T17:56:08.845Z,83.14
2022-10-29T17:58:40.147Z,83.46
2022-10-29T18:01:11.826Z,83.34
2022-10-29T18:03:42.087Z,83.25
2022-10-29T18:06:13.231Z,83.76
2022-10-29T18:08:43.221Z,83.54
2022-10-29T18:11:14.439Z,83.85
2022-10-29T18:13:44.474Z,83.76
2022-10-29T18:16:14.448Z,83.85
2022-10-29T18:19:00.615Z,83.74
2022-10-29T18:21:31.695Z,83.51
2022-10-29T18:23:59.974Z,83.25
2022-10-29T18:26:31.302Z,83.16
2022-10-29T18:29:01.935Z,83.05
2022-10-29T18:31:32.451Z,83.11
2022-10-29T18:34:05.229Z,82.95
2022-10-29T18:36:35.791Z,82.95
2022-10-29T18:39:06.267Z,83.19
2022-10-29T18:41:34.972Z,82.57
2022-10-29T18:44:03.783Z,82.56
2022-10-29T18:46:32.467Z,82.61
2022-10-29T18:49:02.491Z,82.99
2022-10-29T18:51:32.737Z,83.04
2022-10-29T18:54:02.037Z,83.10
2022-10-29T18:56:31.749Z,83.21
2022-10-29T18:59:00.915Z,83.76
2022-10-29T19:01:32.064Z,83.81
2022-10-29T19:04:04.516Z,83.69
2022-10-29T19:06:33.365Z,84.13
2022-10-29T19:09:03.171Z,84.52
2022-10-29T19:11:31.504Z,84.49
2022-10-29T19:14:02.358Z,84.88
2022-10-29T19:16:32.930Z,84.64
2022-10-29T19:21:36.894Z,84.38
2022-10-29T19:24:06.131Z,84.59
2022-10-29T19:26:36.936Z,83.88
2022-10-29T19:29:06.754Z,84.10
2022-10-29T19:31:38.867Z,84.01
2022-10-29T19:34:11.503Z,83.87
2022-10-29T19:36:40.729Z,84.33
2022-10-29T19:39:09.465Z,83.86
2022-10-29T19:41:38.057Z,83.87
2022-10-29T19:44:06.879Z,84.30
2022-10-29T19:46:35.855Z,84.45
2022-10-29T19:49:04.498Z,84.46
2022-10-29T19:51:34.511Z,84.81
2022-10-29T19:54:08.146Z,84.80
2022-10-29T19:56:36.981Z,85.17
2022-10-29T19:59:06.861Z,84.58
2022-10-29T20:01:35.328Z,84.81
2022-10-29T20:04:04.627Z,84.54
2022-10-29T20:06:34.618Z,84.79
2022-10-29T20:09:03.088Z,84.94
2022-10-29T20:11:31.691Z,85.02
2022-10-29T20:14:00.305Z,84.59
2022-10-29T20:16:28.495Z,84.59
2022-10-29T20:18:57.313Z,84.25
2022-10-29T20:21:25.973Z,84.18
2022-10-29T20:23:56.815Z,83.63
2022-10-29T20:26:25.618Z,83.77
2022-10-29T20:28:54.249Z,84.15
2022-10-29T20:31:30.510Z,84.26
2022-10-29T20:34:01.621Z,83.93
2022-10-29T20:36:32.275Z,83.85
2022-10-29T20:39:02.409Z,84.05
2022-10-29T20:41:31.539Z,84.28
2022-10-29T20:44:02.123Z,83.94
2022-10-29T20:46:30.945Z,83.30
2022-10-29T20:49:00.040Z,83.24
2022-10-29T20:51:29.795Z,82.80
2022-10-29T20:53:58.345Z,82.46
2022-10-29T20:56:29.577Z,82.54
2022-10-29T20:58:57.826Z,82.57
2022-10-29T21:01:26.667Z,82.64
2022-10-29T21:03:56.725Z,82.42
2022-10-29T21:06:25.674Z,82.31
2022-10-29T21:08:55.006Z,82.46
2022-10-29T21:11:25.105Z,82.62
2022-10-29T21:13:55.568Z,82.39
2022-10-29T21:16:27.455Z,82.72
2022-10-29T21:18:58.929Z,83.13
2022-10-29T21:21:27.860Z,82.96
2022-10-29T21:23:57.410Z,83.12
2022-10-29T21:26:27.769Z,83.15
2022-10-29T21:28:58.304Z,83.15
2022-10-29T21:31:26.628Z,83.30
2022-10-29T21:33:56.431Z,83.56
2022-10-29T21:36:24.938Z,83.99
2022-10-29T21:38:53.314Z,84.11
2022-10-29T21:41:21.530Z,84.13
2022-10-29T21:43:50.091Z,83.86
2022-10-29T21:46:19.782Z,83.85
2022-10-29T21:48:48.156Z,84.12
2022-10-29T21:51:17.365Z,84.16
2022-10-29T21:53:47.606Z,83.89
2022-10-29T21:56:19.837Z,83.74
2022-10-29T21:58:48.587Z,83.67
2022-10-29T22:01:17.928Z,83.71
2022-10-29T22:03:48.559Z,83.56
2022-10-29T22:06:18.372Z,83.36
2022-10-29T22:08:48.353Z,84.40
2022-10-29T22:11:18.327Z,84.12
2022-10-29T22:13:46.564Z,83.80
2022-10-29T22:16:15.138Z,83.82
2022-10-29T22:18:43.561Z,83.91
2022-10-29T22:21:17.434Z,83.90
2022-10-29T22:23:47.373Z,83.92
2022-10-29T22:26:17.488Z,84.16
2022-10-29T22:28:48.881Z,83.73
2022-10-29T22:31:19.083Z,84.16
2022-10-29T22:33:50.587Z,83.99
2022-10-29T22:36:22.848Z,83.81
2022-10-29T22:38:54.943Z,83.97
2022-10-29T22:41:26.025Z,83.63
2022-10-29T22:43:55.082Z,83.76
2022-10-29T22:46:23.743Z,83.42
2022-10-29T22:48:52.160Z,83.49
2022-10-29T22:51:23.459Z,83.51
2022-10-29T22:53:52.566Z,83.18
2022-10-29T22:56:23.545Z,82.85
2022-10-29T22:58:52.156Z,82.64
2022-10-29T23:01:22.650Z,82.80
2022-10-29T23:03:51.018Z,83.06
2022-10-29T23:06:22.803Z,83.31
2022-10-29T23:08:53.107Z,83.39
2022-10-29T23:11:23.205Z,83.27
2022-10-29T23:13:53.735Z,83.13
2022-10-29T23:16:23.196Z,83.46
2022-10-29T23:18:52.284Z,83.15
2022-10-29T23:21:22.520Z,83.71
2022-10-29T23:23:51.316Z,83.45
2022-10-29T23:26:20.694Z,83.20
2022-10-29T23:28:49.921Z,83.24
2022-10-29T23:31:20.252Z,83.45
2022-10-29T23:33:51.171Z,83.16
2022-10-29T23:36:22.277Z,83.31
2022-10-29T23:38:55.803Z,83.20
2022-10-29T23:41:26.178Z,83.05
2022-10-29T23:43:54.604Z,83.35
2022-10-29T23:46:23.310Z,83.35
2022-10-29T23:48:57.688Z,83.68
2022-10-29T23:51:32.044Z,84.05
2022-10-29T23:54:03.209Z,84.17
2022-10-29T23:56:40.069Z,83.85
2022-10-29T23:59:15.947Z,83.71
